sensor_id;sensor_type;location;lat;lon;timestamp;P1;durP1;ratioP1;P2;durP2;ratioP2
27163;SDS011;14685;50.618;7.024;2023-03-14T00:01:15;5.13;;;1.48;;
27163;SDS011;14685;50.618;7.024;2023-03-14T00:03:43;8.05;;;1.80;;
27163;SDS011;14685;50.618;7.024;2023-03-14T00:06:10;8.82;;;1.98;;
27163;SDS011;14685;50.618;7.024;2023-03-14T00:08:38;6.47;;;1.80;;
27163;SDS011;14685;50.618;7.024;2023-03-14T00:11:08;5.80;;;1.63;;
27163;SDS011;14685;50.618;7.024;2023-03-14T00:13:36;11.63;;;1.85;;
27163;SDS011;14685;50.618;7.024;2023-03-14T00:16:05;9.05;;;1.95;;
27163;SDS011;14685;50.618;7.024;2023-03-14T00:18:33;14.10;;;2.33;;
27163;SDS011;14685;50.618;7.024;2023-03-14T00:21:03;7.60;;;2.33;;
27163;SDS011;14685;50.618;7.024;2023-03-14T00:23:32;11.25;;;2.72;;
27163;SDS011;14685;50.618;7.024;2023-03-14T00:26:03;9.13;;;1.88;;
27163;SDS011;14685;50.618;7.024;2023-03-14T00:28:31;3.55;;;1.85;;
27163;SDS011;14685;50.618;7.024;2023-03-14T00:31:01;8.57;;;2.28;;
27163;SDS011;14685;50.618;7.024;2023-03-14T00:33:29;5.03;;;1.70;;
27163;SDS011;14685;50.618;7.024;2023-03-14T00:35:57;5.57;;;1.73;;
27163;SDS011;14685;50.618;7.024;2023-03-14T00:38:26;9.73;;;2.10;;
27163;SDS011;14685;50.618;7.024;2023-03-14T00:40:53;4.93;;;1.65;;
27163;SDS011;14685;50.618;7.024;2023-03-14T00:43:21;10.15;;;1.90;;
27163;SDS011;14685;50.618;7.024;2023-03-14T00:45:50;5.25;;;1.50;;
27163;SDS011;14685;50.618;7.024;2023-03-14T00:48:19;7.20;;;2.00;;
27163;SDS011;14685;50.618;7.024;2023-03-14T00:50:47;7.75;;;2.05;;
27163;SDS011;14685;50.618;7.024;2023-03-14T00:53:15;7.03;;;2.08;;
27163;SDS011;14685;50.618;7.024;2023-03-14T00:55:43;7.28;;;2.00;;
27163;SDS011;14685;50.618;7.024;2023-03-14T00:58:11;11.25;;;2.08;;
27163;SDS011;14685;50.618;7.024;2023-03-14T01:00:38;5.85;;;1.60;;
27163;SDS011;14685;50.618;7.024;2023-03-14T01:03:07;5.93;;;1.73;;
27163;SDS011;14685;50.618;7.024;2023-03-14T01:05:35;12.52;;;2.28;;
27163;SDS011;14685;50.618;7.024;2023-03-14T01:08:02;5.85;;;1.80;;
27163;SDS011;14685;50.618;7.024;2023-03-14T01:10:30;4.88;;;1.85;;
27163;SDS011;14685;50.618;7.024;2023-03-14T01:12:57;5.82;;;1.75;;
27163;SDS011;14685;50.618;7.024;2023-03-14T01:15:24;11.50;;;2.00;;
27163;SDS011;14685;50.618;7.024;2023-03-14T01:17:52;5.07;;;1.52;;
27163;SDS011;14685;50.618;7.024;2023-03-14T01:20:19;7.18;;;1.73;;
27163;SDS011;14685;50.618;7.024;2023-03-14T01:22:46;5.63;;;1.90;;
27163;SDS011;14685;50.618;7.024;2023-03-14T01:25:16;6.13;;;1.92;;
27163;SDS011;14685;50.618;7.024;2023-03-14T01:27:44;7.78;;;2.22;;
27163;SDS011;14685;50.618;7.024;2023-03-14T01:30:13;7.78;;;1.67;;
27163;SDS011;14685;50.618;7.024;2023-03-14T01:32:40;8.80;;;1.92;;
27163;SDS011;14685;50.618;7.024;2023-03-14T01:35:07;12.65;;;1.95;;
27163;SDS011;14685;50.618;7.024;2023-03-14T01:37:34;4.07;;;1.80;;
27163;SDS011;14685;50.618;7.024;2023-03-14T01:40:01;7.13;;;1.95;;
27163;SDS011;14685;50.618;7.024;2023-03-14T01:42:31;7.60;;;1.70;;
27163;SDS011;14685;50.618;7.024;2023-03-14T01:44:59;10.07;;;1.92;;
27163;SDS011;14685;50.618;7.024;2023-03-14T01:47:31;10.60;;;2.15;;
27163;SDS011;14685;50.618;7.024;2023-03-14T01:49:59;4.18;;;1.30;;
27163;SDS011;14685;50.618;7.024;2023-03-14T01:52:36;6.20;;;1.38;;
27163;SDS011;14685;50.618;7.024;2023-03-14T01:57:44;8.45;;;1.60;;
27163;SDS011;14685;50.618;7.024;2023-03-14T02:00:17;7.03;;;1.95;;
27163;SDS011;14685;50.618;7.024;2023-03-14T02:02:58;7.78;;;1.60;;
27163;SDS011;14685;50.618;7.024;2023-03-14T02:05:34;7.35;;;1.60;;
27163;SDS011;14685;50.618;7.024;2023-03-14T02:08:05;5.10;;;1.40;;
27163;SDS011;14685;50.618;7.024;2023-03-14T02:10:47;5.78;;;1.65;;
27163;SDS011;14685;50.618;7.024;2023-03-14T02:13:16;9.40;;;1.88;;
27163;SDS011;14685;50.618;7.024;2023-03-14T02:15:45;8.20;;;1.95;;
27163;SDS011;14685;50.618;7.024;2023-03-14T02:18:12;7.35;;;1.60;;
27163;SDS011;14685;50.618;7.024;2023-03-14T02:20:55;7.93;;;2.28;;
27163;SDS011;14685;50.618;7.024;2023-03-14T02:23:38;10.68;;;1.92;;
27163;SDS011;14685;50.618;7.024;2023-03-14T02:26:27;7.72;;;2.45;;
27163;SDS011;14685;50.618;7.024;2023-03-14T02:29:09;6.15;;;2.13;;
27163;SDS011;14685;50.618;7.024;2023-03-14T02:31:37;8.80;;;2.53;;
27163;SDS011;14685;50.618;7.024;2023-03-14T02:34:04;9.15;;;2.13;;
27163;SDS011;14685;50.618;7.024;2023-03-14T02:36:32;10.68;;;2.13;;
27163;SDS011;14685;50.618;7.024;2023-03-14T02:39:08;8.50;;;2.00;;
27163;SDS011;14685;50.618;7.024;2023-03-14T02:41:40;4.85;;;1.83;;
27163;SDS011;14685;50.618;7.024;2023-03-14T02:44:08;7.47;;;2.20;;
27163;SDS011;14685;50.618;7.024;2023-03-14T02:46:35;11.40;;;2.17;;
27163;SDS011;14685;50.618;7.024;2023-03-14T02:49:03;10.02;;;2.30;;
27163;SDS011;14685;50.618;7.024;2023-03-14T02:51:32;11.40;;;2.75;;
27163;SDS011;14685;50.618;7.024;2023-03-14T02:54:00;14.32;;;2.55;;
27163;SDS011;14685;50.618;7.024;2023-03-14T02:56:27;7.25;;;2.20;;
27163;SDS011;14685;50.618;7.024;2023-03-14T02:58:55;9.98;;;2.20;;
27163;SDS011;14685;50.618;7.024;2023-03-14T03:01:24;9.50;;;2.30;;
27163;SDS011;14685;50.618;7.024;2023-03-14T03:03:51;8.98;;;1.80;;
27163;SDS011;14685;50.618;7.024;2023-03-14T03:06:19;9.57;;;2.03;;
27163;SDS011;14685;50.618;7.024;2023-03-14T03:08:47;9.13;;;1.70;;
27163;SDS011;14685;50.618;7.024;2023-03-14T03:11:14;8.45;;;2.50;;
27163;SDS011;14685;50.618;7.024;2023-03-14T03:13:41;9.18;;;1.67;;
27163;SDS011;14685;50.618;7.024;2023-03-14T03:16:08;13.52;;;2.75;;
27163;SDS011;14685;50.618;7.024;2023-03-14T03:18:36;11.20;;;2.03;;
27163;SDS011;14685;50.618;7.024;2023-03-14T03:21:03;12.48;;;2.30;;
27163;SDS011;14685;50.618;7.024;2023-03-14T03:23:32;10.15;;;2.60;;
27163;SDS011;14685;50.618;7.024;2023-03-14T03:25:59;7.10;;;1.83;;
27163;SDS011;14685;50.618;7.024;2023-03-14T03:28:27;8.93;;;2.28;;
27163;SDS011;14685;50.618;7.024;2023-03-14T03:30:54;6.68;;;2.45;;
27163;SDS011;14685;50.618;7.024;2023-03-14T03:33:21;7.60;;;2.22;;
27163;SDS011;14685;50.618;7.024;2023-03-14T03:35:49;10.40;;;2.08;;
27163;SDS011;14685;50.618;7.024;2023-03-14T03:38:19;9.07;;;1.95;;
27163;SDS011;14685;50.618;7.024;2023-03-14T03:40:46;8.32;;;1.80;;
27163;SDS011;14685;50.618;7.024;2023-03-14T03:43:13;6.88;;;1.50;;
27163;SDS011;14685;50.618;7.024;2023-03-14T03:45:40;6.28;;;1.77;;
27163;SDS011;14685;50.618;7.024;2023-03-14T03:48:07;9.23;;;2.00;;
27163;SDS011;14685;50.618;7.024;2023-03-14T03:50:34;8.65;;;1.67;;
27163;SDS011;14685;50.618;7.024;2023-03-14T03:53:00;7.75;;;1.63;;
27163;SDS011;14685;50.618;7.024;2023-03-14T03:55:28;7.32;;;2.10;;
27163;SDS011;14685;50.618;7.024;2023-03-14T03:57:54;6.05;;;1.65;;
27163;SDS011;14685;50.618;7.024;2023-03-14T04:00:21;9.63;;;1.88;;
27163;SDS011;14685;50.618;7.024;2023-03-14T04:02:48;6.30;;;1.40;;
27163;SDS011;14685;50.618;7.024;2023-03-14T04:05:15;2.97;;;1.38;;
27163;SDS011;14685;50.618;7.024;2023-03-14T04:07:42;4.93;;;1.55;;
27163;SDS011;14685;50.618;7.024;2023-03-14T04:10:09;3.42;;;1.27;;
27163;SDS011;14685;50.618;7.024;2023-03-14T04:12:36;2.92;;;1.15;;
27163;SDS011;14685;50.618;7.024;2023-03-14T04:15:03;4.65;;;1.35;;
27163;SDS011;14685;50.618;7.024;2023-03-14T04:17:30;5.25;;;1.00;;
27163;SDS011;14685;50.618;7.024;2023-03-14T04:19:57;3.63;;;1.33;;
27163;SDS011;14685;50.618;7.024;2023-03-14T04:22:24;3.65;;;1.05;;
27163;SDS011;14685;50.618;7.024;2023-03-14T04:24:50;1.50;;;0.90;;
27163;SDS011;14685;50.618;7.024;2023-03-14T04:27:17;1.33;;;0.82;;
27163;SDS011;14685;50.618;7.024;2023-03-14T04:29:44;1.73;;;0.75;;
27163;SDS011;14685;50.618;7.024;2023-03-14T04:32:11;2.25;;;0.90;;
27163;SDS011;14685;50.618;7.024;2023-03-14T04:34:38;3.08;;;0.90;;
27163;SDS011;14685;50.618;7.024;2023-03-14T04:37:05;2.78;;;0.80;;
27163;SDS011;14685;50.618;7.024;2023-03-14T04:39:31;1.63;;;0.60;;
27163;SDS011;14685;50.618;7.024;2023-03-14T04:41:58;0.90;;;0.70;;
27163;SDS011;14685;50.618;7.024;2023-03-14T04:44:25;4.28;;;1.00;;
27163;SDS011;14685;50.618;7.024;2023-03-14T04:46:52;2.40;;;0.65;;
27163;SDS011;14685;50.618;7.024;2023-03-14T04:49:19;2.08;;;0.80;;
27163;SDS011;14685;50.618;7.024;2023-03-14T04:51:46;1.75;;;0.80;;
27163;SDS011;14685;50.618;7.024;2023-03-14T04:54:13;1.40;;;0.70;;
27163;SDS011;14685;50.618;7.024;2023-03-14T04:56:39;1.55;;;0.80;;
27163;SDS011;14685;50.618;7.024;2023-03-14T04:59:06;1.02;;;0.70;;
27163;SDS011;14685;50.618;7.024;2023-03-14T05:01:34;1.40;;;0.70;;
27163;SDS011;14685;50.618;7.024;2023-03-14T05:04:02;3.78;;;1.00;;
27163;SDS011;14685;50.618;7.024;2023-03-14T05:06:28;1.10;;;0.60;;
27163;SDS011;14685;50.618;7.024;2023-03-14T05:08:55;1.65;;;0.70;;
27163;SDS011;14685;50.618;7.024;2023-03-14T05:11:22;2.20;;;0.60;;
27163;SDS011;14685;50.618;7.024;2023-03-14T05:13:49;1.85;;;0.63;;
27163;SDS011;14685;50.618;7.024;2023-03-14T05:16:16;1.67;;;0.80;;
27163;SDS011;14685;50.618;7.024;2023-03-14T05:18:43;1.63;;;0.73;;
27163;SDS011;14685;50.618;7.024;2023-03-14T05:21:09;2.17;;;0.68;;
27163;SDS011;14685;50.618;7.024;2023-03-14T05:23:36;3.72;;;0.77;;
27163;SDS011;14685;50.618;7.024;2023-03-14T05:26:03;1.45;;;0.60;;
27163;SDS011;14685;50.618;7.024;2023-03-14T05:28:30;2.88;;;1.23;;
27163;SDS011;14685;50.618;7.024;2023-03-14T05:30:57;2.30;;;0.55;;
27163;SDS011;14685;50.618;7.024;2023-03-14T05:33:24;0.75;;;0.55;;
27163;SDS011;14685;50.618;7.024;2023-03-14T05:35:51;0.43;;;0.43;;
27163;SDS011;14685;50.618;7.024;2023-03-14T05:38:18;2.25;;;0.50;;
27163;SDS011;14685;50.618;7.024;2023-03-14T05:40:45;1.77;;;0.60;;
27163;SDS011;14685;50.618;7.024;2023-03-14T05:43:12;0.70;;;0.60;;
27163;SDS011;14685;50.618;7.024;2023-03-14T05:45:39;0.60;;;0.50;;
27163;SDS011;14685;50.618;7.024;2023-03-14T05:48:07;1.48;;;0.52;;
27163;SDS011;14685;50.618;7.024;2023-03-14T05:50:34;1.17;;;0.50;;
27163;SDS011;14685;50.618;7.024;2023-03-14T05:53:01;0.60;;;0.50;;
27163;SDS011;14685;50.618;7.024;2023-03-14T05:55:28;2.15;;;0.73;;
27163;SDS011;14685;50.618;7.024;2023-03-14T05:57:55;2.25;;;0.60;;
27163;SDS011;14685;50.618;7.024;2023-03-14T06:00:22;1.20;;;0.40;;
27163;SDS011;14685;50.618;7.024;2023-03-14T06:02:52;1.80;;;0.60;;
27163;SDS011;14685;50.618;7.024;2023-03-14T06:05:22;1.20;;;0.60;;
27163;SDS011;14685;50.618;7.024;2023-03-14T06:07:52;1.27;;;0.70;;
27163;SDS011;14685;50.618;7.024;2023-03-14T06:10:19;1.27;;;0.60;;
27163;SDS011;14685;50.618;7.024;2023-03-14T06:12:46;2.55;;;1.00;;
27163;SDS011;14685;50.618;7.024;2023-03-14T06:15:13;4.80;;;1.58;;
27163;SDS011;14685;50.618;7.024;2023-03-14T06:17:40;1.60;;;0.68;;
27163;SDS011;14685;50.618;7.024;2023-03-14T06:20:07;3.47;;;1.10;;
27163;SDS011;14685;50.618;7.024;2023-03-14T06:22:35;3.58;;;0.98;;
27163;SDS011;14685;50.618;7.024;2023-03-14T06:25:02;2.03;;;0.73;;
27163;SDS011;14685;50.618;7.024;2023-03-14T06:27:30;0.60;;;0.60;;
27163;SDS011;14685;50.618;7.024;2023-03-14T06:29:57;0.88;;;0.50;;
27163;SDS011;14685;50.618;7.024;2023-03-14T06:32:23;2.60;;;1.38;;
27163;SDS011;14685;50.618;7.024;2023-03-14T06:34:51;2.05;;;0.88;;
27163;SDS011;14685;50.618;7.024;2023-03-14T06:37:19;1.15;;;0.77;;
27163;SDS011;14685;50.618;7.024;2023-03-14T06:39:46;0.77;;;0.40;;
27163;SDS011;14685;50.618;7.024;2023-03-14T06:42:13;0.77;;;0.40;;
27163;SDS011;14685;50.618;7.024;2023-03-14T06:44:40;0.68;;;0.60;;
27163;SDS011;14685;50.618;7.024;2023-03-14T06:47:07;0.52;;;0.52;;
27163;SDS011;14685;50.618;7.024;2023-03-14T06:49:33;0.98;;;0.47;;
27163;SDS011;14685;50.618;7.024;2023-03-14T06:52:00;1.90;;;0.55;;
27163;SDS011;14685;50.618;7.024;2023-03-14T06:54:27;2.22;;;0.60;;
27163;SDS011;14685;50.618;7.024;2023-03-14T06:56:54;0.43;;;0.43;;
27163;SDS011;14685;50.618;7.024;2023-03-14T06:59:21;1.73;;;0.40;;
27163;SDS011;14685;50.618;7.024;2023-03-14T07:01:48;0.65;;;0.60;;
27163;SDS011;14685;50.618;7.024;2023-03-14T07:04:17;0.95;;;0.50;;
27163;SDS011;14685;50.618;7.024;2023-03-14T07:06:44;1.23;;;0.50;;
27163;SDS011;14685;50.618;7.024;2023-03-14T07:09:13;1.05;;;0.80;;
27163;SDS011;14685;50.618;7.024;2023-03-14T07:11:44;0.52;;;0.50;;
27163;SDS011;14685;50.618;7.024;2023-03-14T07:14:10;1.17;;;0.55;;
27163;SDS011;14685;50.618;7.024;2023-03-14T07:16:37;0.93;;;0.50;;
27163;SDS011;14685;50.618;7.024;2023-03-14T07:19:04;0.50;;;0.50;;
27163;SDS011;14685;50.618;7.024;2023-03-14T07:21:31;0.65;;;0.50;;
27163;SDS011;14685;50.618;7.024;2023-03-14T07:23:58;0.75;;;0.50;;
27163;SDS011;14685;50.618;7.024;2023-03-14T07:26:25;0.50;;;0.50;;
27163;SDS011;14685;50.618;7.024;2023-03-14T07:28:52;0.60;;;0.60;;
27163;SDS011;14685;50.618;7.024;2023-03-14T07:31:19;2.60;;;0.75;;
27163;SDS011;14685;50.618;7.024;2023-03-14T07:33:46;0.90;;;0.70;;
27163;SDS011;14685;50.618;7.024;2023-03-14T07:36:13;0.45;;;0.40;;
27163;SDS011;14685;50.618;7.024;2023-03-14T07:38:40;0.50;;;0.50;;
27163;SDS011;14685;50.618;7.024;2023-03-14T07:41:07;0.50;;;0.50;;
27163;SDS011;14685;50.618;7.024;2023-03-14T07:43:35;0.52;;;0.50;;
27163;SDS011;14685;50.618;7.024;2023-03-14T07:46:01;0.77;;;0.60;;
27163;SDS011;14685;50.618;7.024;2023-03-14T07:48:28;0.38;;;0.38;;
27163;SDS011;14685;50.618;7.024;2023-03-14T07:50:56;1.08;;;0.40;;
27163;SDS011;14685;50.618;7.024;2023-03-14T07:53:23;0.40;;;0.40;;
27163;SDS011;14685;50.618;7.024;2023-03-14T07:55:51;0.50;;;0.50;;
27163;SDS011;14685;50.618;7.024;2023-03-14T07:58:19;0.52;;;0.50;;
27163;SDS011;14685;50.618;7.024;2023-03-14T08:00:48;0.40;;;0.40;;
27163;SDS011;14685;50.618;7.024;2023-03-14T08:03:15;0.40;;;0.40;;
27163;SDS011;14685;50.618;7.024;2023-03-14T08:05:43;0.60;;;0.50;;
27163;SDS011;14685;50.618;7.024;2023-03-14T08:08:10;0.40;;;0.40;;
27163;SDS011;14685;50.618;7.024;2023-03-14T08:10:38;0.40;;;0.40;;
27163;SDS011;14685;50.618;7.024;2023-03-14T08:13:05;0.40;;;0.40;;
27163;SDS011;14685;50.618;7.024;2023-03-14T08:15:32;0.40;;;0.40;;
27163;SDS011;14685;50.618;7.024;2023-03-14T08:17:59;1.02;;;0.40;;
27163;SDS011;14685;50.618;7.024;2023-03-14T08:20:27;0.35;;;0.35;;
27163;SDS011;14685;50.618;7.024;2023-03-14T08:22:56;0.93;;;0.60;;
27163;SDS011;14685;50.618;7.024;2023-03-14T08:25:24;0.32;;;0.32;;
27163;SDS011;14685;50.618;7.024;2023-03-14T08:27:52;0.57;;;0.40;;
27163;SDS011;14685;50.618;7.024;2023-03-14T08:30:19;0.40;;;0.40;;
27163;SDS011;14685;50.618;7.024;2023-03-14T08:32:48;0.55;;;0.35;;
27163;SDS011;14685;50.618;7.024;2023-03-14T08:35:15;0.43;;;0.40;;
27163;SDS011;14685;50.618;7.024;2023-03-14T08:37:42;0.52;;;0.30;;
27163;SDS011;14685;50.618;7.024;2023-03-14T08:40:09;0.30;;;0.30;;
27163;SDS011;14685;50.618;7.024;2023-03-14T08:42:38;1.92;;;0.50;;
27163;SDS011;14685;50.618;7.024;2023-03-14T08:45:06;0.30;;;0.30;;
27163;SDS011;14685;50.618;7.024;2023-03-14T08:47:34;2.10;;;0.63;;
27163;SDS011;14685;50.618;7.024;2023-03-14T08:50:02;0.50;;;0.50;;
27163;SDS011;14685;50.618;7.024;2023-03-14T08:52:30;1.27;;;0.30;;
27163;SDS011;14685;50.618;7.024;2023-03-14T08:54:58;0.85;;;0.40;;
27163;SDS011;14685;50.618;7.024;2023-03-14T08:57:25;0.40;;;0.40;;
27163;SDS011;14685;50.618;7.024;2023-03-14T08:59:56;0.55;;;0.40;;
27163;SDS011;14685;50.618;7.024;2023-03-14T09:02:23;0.57;;;0.45;;
27163;SDS011;14685;50.618;7.024;2023-03-14T09:04:52;0.30;;;0.30;;
27163;SDS011;14685;50.618;7.024;2023-03-14T09:07:19;0.35;;;0.35;;
27163;SDS011;14685;50.618;7.024;2023-03-14T09:09:46;0.50;;;0.50;;
27163;SDS011;14685;50.618;7.024;2023-03-14T09:12:13;0.40;;;0.40;;
27163;SDS011;14685;50.618;7.024;2023-03-14T09:14:39;0.30;;;0.30;;
27163;SDS011;14685;50.618;7.024;2023-03-14T09:17:06;0.85;;;0.32;;
27163;SDS011;14685;50.618;7.024;2023-03-14T09:19:34;1.00;;;0.40;;
27163;SDS011;14685;50.618;7.024;2023-03-14T09:22:01;0.40;;;0.40;;
27163;SDS011;14685;50.618;7.024;2023-03-14T09:24:28;0.35;;;0.35;;
27163;SDS011;14685;50.618;7.024;2023-03-14T09:26:55;0.40;;;0.40;;
27163;SDS011;14685;50.618;7.024;2023-03-14T09:29:23;1.08;;;0.40;;
27163;SDS011;14685;50.618;7.024;2023-03-14T09:31:50;0.40;;;0.40;;
27163;SDS011;14685;50.618;7.024;2023-03-14T09:34:17;1.85;;;0.50;;
27163;SDS011;14685;50.618;7.024;2023-03-14T09:36:45;0.40;;;0.40;;
27163;SDS011;14685;50.618;7.024;2023-03-14T09:46:16;0.52;;;0.50;;
27163;SDS011;14685;50.618;7.024;2023-03-14T09:48:43;0.35;;;0.32;;
27163;SDS011;14685;50.618;7.024;2023-03-14T09:51:12;0.57;;;0.50;;
27163;SDS011;14685;50.618;7.024;2023-03-14T09:53:41;0.40;;;0.40;;
27163;SDS011;14685;50.618;7.024;2023-03-14T09:56:12;0.30;;;0.30;;
27163;SDS011;14685;50.618;7.024;2023-03-14T09:58:51;2.00;;;0.50;;
27163;SDS011;14685;50.618;7.024;2023-03-14T10:01:28;0.57;;;0.50;;
27163;SDS011;14685;50.618;7.024;2023-03-14T10:04:02;0.40;;;0.40;;
27163;SDS011;14685;50.618;7.024;2023-03-14T10:06:36;0.93;;;0.60;;
27163;SDS011;14685;50.618;7.024;2023-03-14T10:09:03;0.50;;;0.50;;
27163;SDS011;14685;50.618;7.024;2023-03-14T10:11:32;1.20;;;0.60;;
27163;SDS011;14685;50.618;7.024;2023-03-14T10:14:06;0.60;;;0.50;;
27163;SDS011;14685;50.618;7.024;2023-03-14T10:16:35;0.40;;;0.40;;
27163;SDS011;14685;50.618;7.024;2023-03-14T10:19:08;1.33;;;0.50;;
27163;SDS011;14685;50.618;7.024;2023-03-14T10:21:41;0.50;;;0.50;;
27163;SDS011;14685;50.618;7.024;2023-03-14T10:24:18;0.88;;;0.50;;
27163;SDS011;14685;50.618;7.024;2023-03-14T10:27:00;0.40;;;0.40;;
27163;SDS011;14685;50.618;7.024;2023-03-14T10:29:30;1.83;;;0.70;;
27163;SDS011;14685;50.618;7.024;2023-03-14T10:32:01;0.60;;;0.60;;
27163;SDS011;14685;50.618;7.024;2023-03-14T10:34:35;0.60;;;0.60;;
27163;SDS011;14685;50.618;7.024;2023-03-14T10:37:05;0.70;;;0.70;;
27163;SDS011;14685;50.618;7.024;2023-03-14T10:40:00;1.33;;;0.80;;
27163;SDS011;14685;50.618;7.024;2023-03-14T10:42:32;1.65;;;0.55;;
27163;SDS011;14685;50.618;7.024;2023-03-14T10:45:06;0.50;;;0.50;;
27163;SDS011;14685;50.618;7.024;2023-03-14T10:47:48;1.65;;;0.70;;
27163;SDS011;14685;50.618;7.024;2023-03-14T10:50:35;2.53;;;0.80;;
27163;SDS011;14685;50.618;7.024;2023-03-14T10:53:04;1.00;;;0.80;;
27163;SDS011;14685;50.618;7.024;2023-03-14T10:55:41;1.02;;;0.88;;
27163;SDS011;14685;50.618;7.024;2023-03-14T11:09:28;2.20;;;1.33;;
27163;SDS011;14685;50.618;7.024;2023-03-14T11:12:13;3.58;;;1.48;;
27163;SDS011;14685;50.618;7.024;2023-03-14T11:15:12;1.35;;;1.25;;
27163;SDS011;14685;50.618;7.024;2023-03-14T11:23:13;3.53;;;1.52;;
27163;SDS011;14685;50.618;7.024;2023-03-14T11:28:50;2.53;;;1.30;;
27163;SDS011;14685;50.618;7.024;2023-03-14T11:31:31;2.40;;;1.23;;
27163;SDS011;14685;50.618;7.024;2023-03-14T11:37:00;1.88;;;1.40;;
27163;SDS011;14685;50.618;7.024;2023-03-14T11:39:39;1.23;;;1.13;;
27163;SDS011;14685;50.618;7.024;2023-03-14T11:42:14;1.70;;;1.40;;
27163;SDS011;14685;50.618;7.024;2023-03-14T11:44:44;1.23;;;1.13;;
27163;SDS011;14685;50.618;7.024;2023-03-14T11:50:33;1.80;;;1.20;;
27163;SDS011;14685;50.618;7.024;2023-03-14T11:53:08;1.65;;;1.10;;
27163;SDS011;14685;50.618;7.024;2023-03-14T11:55:40;1.67;;;1.08;;
27163;SDS011;14685;50.618;7.024;2023-03-14T11:58:27;1.13;;;0.65;;
27163;SDS011;14685;50.618;7.024;2023-03-14T12:01:02;1.75;;;0.77;;
27163;SDS011;14685;50.618;7.024;2023-03-14T12:03:53;1.40;;;1.00;;
27163;SDS011;14685;50.618;7.024;2023-03-14T12:06:35;0.60;;;0.60;;
27163;SDS011;14685;50.618;7.024;2023-03-14T12:09:10;1.90;;;0.75;;
27163;SDS011;14685;50.618;7.024;2023-03-14T12:11:41;0.82;;;0.80;;
27163;SDS011;14685;50.618;7.024;2023-03-14T12:14:36;1.48;;;0.90;;
27163;SDS011;14685;50.618;7.024;2023-03-14T12:20:00;1.00;;;1.00;;
27163;SDS011;14685;50.618;7.024;2023-03-14T12:22:33;1.75;;;0.90;;
27163;SDS011;14685;50.618;7.024;2023-03-14T12:25:20;1.73;;;0.98;;
27163;SDS011;14685;50.618;7.024;2023-03-14T12:28:12;3.30;;;1.00;;
27163;SDS011;14685;50.618;7.024;2023-03-14T12:30:47;1.75;;;1.05;;
27163;SDS011;14685;50.618;7.024;2023-03-14T12:35:49;0.60;;;0.60;;
27163;SDS011;14685;50.618;7.024;2023-03-14T12:41:17;2.03;;;0.70;;
27163;SDS011;14685;50.618;7.024;2023-03-14T12:46:59;1.48;;;0.70;;
27163;SDS011;14685;50.618;7.024;2023-03-14T12:49:30;2.38;;;0.70;;
27163;SDS011;14685;50.618;7.024;2023-03-14T12:52:02;0.47;;;0.40;;
27163;SDS011;14685;50.618;7.024;2023-03-14T13:00:19;0.98;;;0.70;;
27163;SDS011;14685;50.618;7.024;2023-03-14T13:02:48;1.55;;;0.90;;
27163;SDS011;14685;50.618;7.024;2023-03-14T13:12:51;1.55;;;0.93;;
27163;SDS011;14685;50.618;7.024;2023-03-14T13:15:32;2.00;;;0.98;;
27163;SDS011;14685;50.618;7.024;2023-03-14T13:18:10;1.33;;;0.82;;
27163;SDS011;14685;50.618;7.024;2023-03-14T13:20:46;2.47;;;0.90;;
27163;SDS011;14685;50.618;7.024;2023-03-14T13:23:34;1.13;;;1.00;;
27163;SDS011;14685;50.618;7.024;2023-03-14T13:26:05;1.20;;;1.00;;
27163;SDS011;14685;50.618;7.024;2023-03-14T13:28:39;4.72;;;2.00;;
27163;SDS011;14685;50.618;7.024;2023-03-14T13:31:12;1.65;;;1.30;;
27163;SDS011;14685;50.618;7.024;2023-03-14T13:33:59;1.20;;;1.10;;
27163;SDS011;14685;50.618;7.024;2023-03-14T13:36:28;3.72;;;1.20;;
27163;SDS011;14685;50.618;7.024;2023-03-14T13:38:57;2.40;;;0.90;;
27163;SDS011;14685;50.618;7.024;2023-03-14T13:41:25;1.63;;;1.13;;
27163;SDS011;14685;50.618;7.024;2023-03-14T13:44:37;3.30;;;1.05;;
27163;SDS011;14685;50.618;7.024;2023-03-14T13:46:49;1.10;;;1.00;;
27163;SDS011;14685;50.618;7.024;2023-03-14T13:49:19;3.22;;;1.40;;
27163;SDS011;14685;50.618;7.024;2023-03-14T13:51:50;2.92;;;1.33;;
27163;SDS011;14685;50.618;7.024;2023-03-14T13:54:18;2.05;;;0.98;;
27163;SDS011;14685;50.618;7.024;2023-03-14T13:56:47;2.92;;;0.85;;
27163;SDS011;14685;50.618;7.024;2023-03-14T13:59:24;3.58;;;1.30;;
27163;SDS011;14685;50.618;7.024;2023-03-14T14:01:55;2.33;;;1.27;;
27163;SDS011;14685;50.618;7.024;2023-03-14T14:04:25;5.88;;;1.75;;
27163;SDS011;14685;50.618;7.024;2023-03-14T14:06:56;3.13;;;1.38;;
27163;SDS011;14685;50.618;7.024;2023-03-14T14:09:35;4.43;;;1.33;;
27163;SDS011;14685;50.618;7.024;2023-03-14T14:12:08;2.30;;;1.20;;
27163;SDS011;14685;50.618;7.024;2023-03-14T14:17:47;3.55;;;1.52;;
27163;SDS011;14685;50.618;7.024;2023-03-14T14:20:29;4.50;;;1.38;;
27163;SDS011;14685;50.618;7.024;2023-03-14T14:23:01;5.00;;;1.42;;
27163;SDS011;14685;50.618;7.024;2023-03-14T14:25:31;4.40;;;1.50;;
27163;SDS011;14685;50.618;7.024;2023-03-14T14:27:59;4.50;;;1.45;;
27163;SDS011;14685;50.618;7.024;2023-03-14T14:30:41;3.80;;;1.20;;
27163;SDS011;14685;50.618;7.024;2023-03-14T14:33:16;3.08;;;1.48;;
27163;SDS011;14685;50.618;7.024;2023-03-14T14:35:52;8.30;;;1.67;;
27163;SDS011;14685;50.618;7.024;2023-03-14T14:38:24;7.13;;;1.88;;
27163;SDS011;14685;50.618;7.024;2023-03-14T14:40:53;6.25;;;1.88;;
27163;SDS011;14685;50.618;7.024;2023-03-14T14:43:26;6.97;;;2.10;;
27163;SDS011;14685;50.618;7.024;2023-03-14T14:45:54;3.95;;;1.60;;
27163;SDS011;14685;50.618;7.024;2023-03-14T14:48:25;7.30;;;2.00;;
27163;SDS011;14685;50.618;7.024;2023-03-14T14:56:16;9.57;;;2.20;;
27163;SDS011;14685;50.618;7.024;2023-03-14T14:58:57;12.82;;;2.60;;
27163;SDS011;14685;50.618;7.024;2023-03-14T15:01:39;18.15;;;7.28;;
27163;SDS011;14685;50.618;7.024;2023-03-14T15:04:10;11.93;;;3.10;;
27163;SDS011;14685;50.618;7.024;2023-03-14T15:06:42;18.50;;;5.00;;
27163;SDS011;14685;50.618;7.024;2023-03-14T15:09:10;13.18;;;5.18;;
27163;SDS011;14685;50.618;7.024;2023-03-14T15:11:37;11.93;;;4.05;;
27163;SDS011;14685;50.618;7.024;2023-03-14T15:14:06;10.50;;;3.60;;
27163;SDS011;14685;50.618;7.024;2023-03-14T15:16:34;11.25;;;2.60;;
27163;SDS011;14685;50.618;7.024;2023-03-14T15:19:08;7.65;;;1.90;;
27163;SDS011;14685;50.618;7.024;2023-03-14T15:21:49;6.93;;;1.70;;
27163;SDS011;14685;50.618;7.024;2023-03-14T15:24:17;5.97;;;1.48;;
27163;SDS011;14685;50.618;7.024;2023-03-14T15:26:47;6.10;;;1.55;;
27163;SDS011;14685;50.618;7.024;2023-03-14T15:29:14;4.18;;;1.42;;
27163;SDS011;14685;50.618;7.024;2023-03-14T15:31:40;5.45;;;1.90;;
27163;SDS011;14685;50.618;7.024;2023-03-14T15:34:11;3.20;;;0.93;;
27163;SDS011;14685;50.618;7.024;2023-03-14T15:36:38;1.52;;;0.90;;
27163;SDS011;14685;50.618;7.024;2023-03-14T15:39:05;3.22;;;1.05;;
27163;SDS011;14685;50.618;7.024;2023-03-14T15:41:32;1.35;;;0.90;;
27163;SDS011;14685;50.618;7.024;2023-03-14T15:44:00;2.53;;;0.90;;
27163;SDS011;14685;50.618;7.024;2023-03-14T15:46:27;2.33;;;1.00;;
27163;SDS011;14685;50.618;7.024;2023-03-14T15:48:56;2.92;;;1.10;;
27163;SDS011;14685;50.618;7.024;2023-03-14T15:51:24;2.72;;;1.20;;
27163;SDS011;14685;50.618;7.024;2023-03-14T15:53:54;3.33;;;1.27;;
27163;SDS011;14685;50.618;7.024;2023-03-14T15:56:21;4.10;;;1.40;;
27163;SDS011;14685;50.618;7.024;2023-03-14T15:58:51;3.95;;;1.35;;
27163;SDS011;14685;50.618;7.024;2023-03-14T16:01:18;4.50;;;1.30;;
27163;SDS011;14685;50.618;7.024;2023-03-14T16:03:46;2.60;;;1.48;;
27163;SDS011;14685;50.618;7.024;2023-03-14T16:06:15;3.17;;;1.55;;
27163;SDS011;14685;50.618;7.024;2023-03-14T16:08:42;3.47;;;1.40;;
27163;SDS011;14685;50.618;7.024;2023-03-14T16:11:09;2.25;;;1.05;;